LFKB Airport Information

Runway Information
Runway 16 Length 8266 ft width 148 ft
Elevation 13 ft Threshold 0 ft Heading 163
Runway 34 Length 8266 ft Width 148 ft
Elevation 26 ft Threshold 0 ft Heading 343
Airport Frequencies
Type AFIS Name BASTIA INF Frequency 124.725 MHZ
Type APP Name BASTIA RAD Frequency 123.825 MHZ
Type ARR Name BASTIA APP Frequency 37.85 MHZ
Type ATIS Name BASTIA ATI Frequency 125.925 MHZ
Type GND Name GND Frequency 121.825 MHZ
Type TWR Name BASTIA TWR Frequency 118 MHZ
Airport Navaids
Type VOR-DME Name Bastia Frequency 114150 KHZ
Airport Weather Information & NOTAM
ADDS - METARS form results

(0757 UTC 21 February 2019)
Data provider http://aviationweather.gov/metar/data/
 
METAR text: LFKB 210730Z AUTO 23008KT CAVOK 09/04 Q1028 NOSIG
Conditions at: LFKB (BASTIA/PORETTA , FR) observed 0730 UTC 21 February 2019
Temperature: 9.0°C (48°F)
Dewpoint: 4.0°C (39°F) [RH = 71%]
Pressure (altimeter): 30.35 inches Hg (1028.0 mb)
Winds: from the SW (230 degrees) at 9 MPH (8 knots; 4.1 m/s)
Visibility: 6 or more miles (10+ km)
Ceiling: ceiling and visibility are OK
Clouds: unknown
Weather: no significant weather observed at this time

METAR text: LFKB 210700Z AUTO 23011KT CAVOK 08/03 Q1028 NOSIG
Conditions at: LFKB (BASTIA/PORETTA , FR) observed 0700 UTC 21 February 2019
Temperature: 8.0°C (46°F)
Dewpoint: 3.0°C (37°F) [RH = 71%]
Pressure (altimeter): 30.35 inches Hg (1028.0 mb)
Winds: from the SW (230 degrees) at 13 MPH (11 knots; 5.7 m/s)
Visibility: 6 or more miles (10+ km)
Ceiling: ceiling and visibility are OK
Clouds: unknown
Weather: no significant weather observed at this time

Forecast for: LFKB (BASTIA/PORETTA , FR)
Text: TAF LFKB 210200Z 2103/2203 24005KT 9999 FEW030 TX15/2113Z TN04/2105Z
Forecast period: 0300 to 0900 UTC 21 February 2019
Forecast type: FROM: standard forecast or significant change
Winds: from the WSW (240 degrees) at 6 MPH (5 knots; 2.6 m/s)
Visibility: 6 or more miles 10+ km)
Ceiling: at least 12,000 feet AGL
Clouds: few clouds at 3000 feet AGL
Weather: no significant weather forecast for this period
Text: BECMG 2109/2111 12006KT
Forecast period: 0900 to 1900 UTC 21 February 2019
Forecast type: BECOMING: Conditions expected to become as follows by 1100 UTC 21 February 2019
Winds: from the ESE (120 degrees) at 7 MPH (6 knots; 3.1 m/s)
Visibility: 6 or more miles 10+ km)
Ceiling: at least 12,000 feet AGL
Clouds: few clouds at 3000 feet AGL
Weather: no significant weather forecast for this period
Text: BECMG 2119/2121 23004KT
Forecast period: 1900 UTC 21 February 2019 to 0300 UTC 22 February 2019
Forecast type: BECOMING: Conditions expected to become as follows by 2100 UTC 21 February 2019
Winds: from the SW (230 degrees) at 5 MPH (4 knots; 2.1 m/s)
Visibility: 6 or more miles 10+ km)
Ceiling: at least 12,000 feet AGL
Clouds: few clouds at 3000 feet AGL
Weather: no significant weather forecast for this period